Time;durP1;ratioP1;P1;durP2;ratioP2;P2;SDS_P1;SDS_P2;PMS_P1;PMS_P2;Temp;Humidity;BMP_temperature;BMP_pressure;BME280_temperature;BME280_humidity;BME280_pressure;Samples;Min_cycle;Max_cycle;Signal;HPM_P1;HPM_P2
2021/12/23 00:01:20;;;;;;;35.65;20.58;;;-2.50;99.90;;;;;;4955262;28;20023;-48
2021/12/23 00:03:46;;;;;;;35.55;21.65;;;-2.50;99.90;;;;;;4972246;28;20042;-50
2021/12/23 00:06:11;;;;;;;36.13;22.80;;;-2.50;99.90;;;;;;4973102;28;20038;-57
2021/12/23 00:08:37;;;;;;;36.83;21.13;;;-2.50;99.90;;;;;;4973274;28;20037;-53
2021/12/23 00:11:03;;;;;;;35.75;21.25;;;-2.50;99.90;;;;;;4972080;28;20026;-51
2021/12/23 00:13:28;;;;;;;35.03;19.98;;;-2.50;99.90;;;;;;4973480;28;20082;-54
2021/12/23 00:23:48;;;;;;;37.88;22.08;;;-2.60;99.90;;;;;;4973437;28;20098;-52
2021/12/23 00:26:14;;;;;;;37.90;21.98;;;-2.60;99.90;;;;;;4973280;28;20022;-55
2021/12/23 00:28:39;;;;;;;46.60;24.77;;;-2.60;99.90;;;;;;4973289;28;20031;-55
2021/12/23 00:31:06;;;;;;;44.50;24.83;;;-2.70;99.90;;;;;;4972897;28;20101;-56
2021/12/23 00:33:33;;;;;;;43.00;22.92;;;-2.70;99.90;;;;;;4973236;28;20033;-53
2021/12/23 00:35:59;;;;;;;41.53;24.92;;;-2.70;99.90;;;;;;4973106;28;20030;-57
2021/12/23 00:38:33;;;;;;;42.08;23.77;;;-2.70;99.90;;;;;;4973062;28;20023;-54
2021/12/23 00:41:01;;;;;;;39.63;24.38;;;-2.60;99.90;;;;;;4973010;28;20046;-50
2021/12/23 00:43:27;;;;;;;50.60;26.67;;;-2.60;99.90;;;;;;4973137;28;20019;-52
2021/12/23 00:45:52;;;;;;;38.72;23.90;;;-2.60;99.90;;;;;;4973062;28;20031;-55
2021/12/23 00:48:18;;;;;;;43.47;25.67;;;-2.50;99.90;;;;;;4973041;28;20542;-51
2021/12/23 00:50:45;;;;;;;43.15;23.15;;;-2.40;99.90;;;;;;4972113;28;20030;-57
2021/12/23 00:53:12;;;;;;;39.03;23.95;;;-2.40;99.90;;;;;;4972837;28;20026;-51
2021/12/23 00:55:38;;;;;;;39.58;23.38;;;-2.40;99.90;;;;;;4973226;28;20031;-53
2021/12/23 00:58:04;;;;;;;39.60;22.63;;;-2.40;99.90;;;;;;4972936;28;20502;-54
2021/12/23 01:00:30;;;;;;;42.88;23.25;;;-2.40;99.90;;;;;;4972518;28;20027;-51
2021/12/23 01:02:58;;;;;;;37.53;20.88;;;-2.50;99.90;;;;;;4972843;28;20029;-55
2021/12/23 01:05:24;;;;;;;34.00;21.20;;;-2.60;99.90;;;;;;4955469;28;20106;-55
2021/12/23 01:07:50;;;;;;;47.67;22.48;;;-2.60;99.90;;;;;;4972796;28;20037;-53
2021/12/23 01:10:17;;;;;;;40.65;22.98;;;-2.40;99.90;;;;;;4972585;28;20023;-53
2021/12/23 01:12:56;;;;;;;38.15;22.15;;;-2.50;99.90;;;;;;4955487;28;20055;-51
2021/12/23 01:17:55;;;;;;;38.67;22.83;;;-2.60;99.90;;;;;;4972838;28;20027;-51
2021/12/23 01:20:30;;;;;;;36.15;20.38;;;-2.50;99.90;;;;;;4972133;28;20031;-52
2021/12/23 01:23:01;;;;;;;36.47;21.50;;;-2.60;99.90;;;;;;4972695;28;20027;-51
2021/12/23 01:25:27;;;;;;;36.20;21.92;;;-2.50;99.90;;;;;;4955210;28;20077;-52
2021/12/23 01:27:53;;;;;;;37.85;20.95;;;-2.40;99.90;;;;;;4972566;28;20030;-52
2021/12/23 01:30:20;;;;;;;36.03;21.85;;;-2.50;99.90;;;;;;4972253;28;20395;-50
2021/12/23 01:32:47;;;;;;;37.33;21.45;;;-2.40;99.90;;;;;;4972403;28;20376;-53
2021/12/23 01:35:13;;;;;;;40.60;22.83;;;-2.40;99.90;;;;;;4972526;28;20026;-50
2021/12/23 01:37:39;;;;;;;34.13;20.98;;;-2.40;99.90;;;;;;4972463;28;20082;-51
2021/12/23 01:40:06;;;;;;;33.53;20.70;;;-2.40;99.90;;;;;;4972140;28;20427;-52
2021/12/23 01:42:31;;;;;;;33.20;18.75;;;-2.40;99.90;;;;;;4972452;28;20085;-51
2021/12/23 01:44:57;;;;;;;33.55;21.30;;;-2.40;99.90;;;;;;4972490;28;20031;-51
2021/12/23 01:47:23;;;;;;;38.13;22.83;;;-2.30;99.90;;;;;;4972342;28;20181;-54
2021/12/23 01:49:50;;;;;;;41.63;25.45;;;-2.20;99.90;;;;;;4971357;28;20026;-55
2021/12/23 01:52:16;;;;;;;44.10;24.48;;;-2.10;99.90;;;;;;4970778;28;20022;-49
2021/12/23 01:54:41;;;;;;;39.13;23.25;;;-2.00;99.90;;;;;;4972315;28;20023;-50
2021/12/23 01:57:08;;;;;;;50.45;26.65;;;-1.90;99.90;;;;;;4972383;28;20030;-54
2021/12/23 01:59:34;;;;;;;44.28;24.13;;;-1.90;99.90;;;;;;4954507;28;20406;-53
2021/12/23 02:02:27;;;;;;;40.50;25.80;;;-1.90;99.90;;;;;;4975466;28;20023;-54
2021/12/23 02:04:53;;;;;;;42.15;24.80;;;-1.90;99.90;;;;;;4974064;28;20026;-51
2021/12/23 02:07:19;;;;;;;34.60;20.83;;;-2.00;99.90;;;;;;4975941;28;20026;-50
2021/12/23 02:09:45;;;;;;;36.08;22.75;;;-2.00;99.90;;;;;;4975642;28;20398;-50
2021/12/23 02:12:11;;;;;;;35.70;20.83;;;-2.10;99.90;;;;;;4975793;28;20041;-50
2021/12/23 02:14:37;;;;;;;35.50;22.02;;;-2.00;99.90;;;;;;4958301;28;20023;-53
2021/12/23 02:17:03;;;;;;;37.60;22.42;;;-2.10;99.90;;;;;;4975741;28;20035;-49
2021/12/23 02:19:29;;;;;;;47.17;24.88;;;-2.10;99.90;;;;;;4975133;28;20498;-56
2021/12/23 02:21:54;;;;;;;48.55;25.80;;;-2.10;99.90;;;;;;4975211;28;20406;-54
2021/12/23 02:24:20;;;;;;;36.65;22.48;;;-2.10;99.90;;;;;;4975523;28;20133;-50
2021/12/23 02:26:45;;;;;;;38.22;22.23;;;-2.00;99.90;;;;;;4975708;28;20375;-51
2021/12/23 02:29:11;;;;;;;38.72;24.42;;;-2.00;99.90;;;;;;4975098;28;20022;-55
2021/12/23 02:31:37;;;;;;;38.63;23.65;;;-2.00;99.90;;;;;;4975433;28;20092;-56
2021/12/23 02:34:03;;;;;;;41.75;23.90;;;-2.00;99.90;;;;;;4975157;28;20039;-55
2021/12/23 02:36:30;;;;;;;46.45;25.85;;;-2.00;99.90;;;;;;4958645;28;20089;-56
2021/12/23 02:38:57;;;;;;;43.85;26.27;;;-2.00;99.90;;;;;;4977602;28;20113;-55
2021/12/23 02:41:24;;;;;;;43.42;25.17;;;-2.10;99.90;;;;;;4975496;28;20110;-52
2021/12/23 02:43:50;;;;;;;47.38;26.58;;;-2.10;99.90;;;;;;4975033;28;20413;-54
2021/12/23 02:46:18;;;;;;;44.92;25.83;;;-2.00;99.90;;;;;;4975197;28;20045;-54
2021/12/23 02:48:44;;;;;;;42.50;25.45;;;-1.90;99.90;;;;;;4975183;28;20089;-51
2021/12/23 02:51:11;;;;;;;50.00;25.88;;;-2.00;99.90;;;;;;4957512;28;20023;-55
2021/12/23 02:53:38;;;;;;;44.35;26.42;;;-2.10;99.90;;;;;;4975005;28;20376;-53
2021/12/23 02:56:06;;;;;;;40.67;24.42;;;-2.10;99.90;;;;;;4975216;28;20031;-51
2021/12/23 02:58:32;;;;;;;48.75;24.00;;;-2.10;99.90;;;;;;4957588;28;20125;-51
2021/12/23 03:01:00;;;;;;;42.80;23.20;;;-2.20;99.90;;;;;;4974604;28;20038;-52
2021/12/23 03:03:26;;;;;;;35.50;22.25;;;-2.20;99.90;;;;;;4974832;28;20019;-52
2021/12/23 03:05:56;;;;;;;39.65;21.85;;;-2.20;99.90;;;;;;4975355;28;20037;-49
2021/12/23 03:08:36;;;;;;;43.33;23.75;;;-2.20;99.90;;;;;;4974841;28;20030;-53
2021/12/23 03:11:04;;;;;;;35.25;22.92;;;-2.10;99.90;;;;;;4974351;28;20037;-51
2021/12/23 03:13:30;;;;;;;37.95;22.88;;;-2.10;99.90;;;;;;4974062;28;20034;-50
2021/12/23 03:15:56;;;;;;;38.83;23.20;;;-2.10;99.90;;;;;;4974587;28;20035;-51
2021/12/23 03:18:22;;;;;;;35.42;21.98;;;-2.00;99.90;;;;;;4974596;28;20486;-50
2021/12/23 03:20:48;;;;;;;38.72;22.23;;;-2.00;99.90;;;;;;5001772;23;20050;-51
2021/12/23 03:23:13;;;;;;;44.80;24.67;;;-1.90;99.90;;;;;;4976257;28;20019;-51
2021/12/23 03:25:39;;;;;;;43.90;24.95;;;-1.90;99.90;;;;;;4976438;28;20033;-51
2021/12/23 03:28:04;;;;;;;44.25;25.08;;;-1.90;99.90;;;;;;4976440;28;20018;-51
2021/12/23 03:30:30;;;;;;;45.25;24.30;;;-1.90;99.90;;;;;;4993368;28;20110;-52
2021/12/23 03:32:56;;;;;;;43.88;25.27;;;-1.90;99.90;;;;;;4993591;28;20065;-49
2021/12/23 03:35:21;;;;;;;43.88;25.10;;;-1.90;99.90;;;;;;4993662;28;20029;-51
2021/12/23 03:37:47;;;;;;;45.38;26.17;;;-2.10;99.90;;;;;;4993608;28;20062;-51
2021/12/23 03:40:13;;;;;;;42.80;24.85;;;-2.20;99.90;;;;;;4993092;28;20023;-52
2021/12/23 03:42:39;;;;;;;45.47;26.67;;;-2.30;99.90;;;;;;4993850;28;20397;-50
2021/12/23 03:45:08;;;;;;;48.28;26.63;;;-2.30;99.90;;;;;;4993687;28;20019;-51
2021/12/23 03:47:35;;;;;;;43.40;26.15;;;-2.30;99.90;;;;;;4993616;28;20512;-47
2021/12/23 03:50:00;;;;;;;54.78;25.05;;;-2.30;99.90;;;;;;4993170;28;20041;-49
2021/12/23 03:52:26;;;;;;;43.80;24.35;;;-2.30;99.90;;;;;;4993223;28;20018;-49
2021/12/23 03:54:52;;;;;;;46.15;25.60;;;-2.30;99.90;;;;;;4975805;28;20034;-48
2021/12/23 03:57:17;;;;;;;44.40;25.23;;;-2.30;99.90;;;;;;4993337;28;20037;-53
2021/12/23 03:59:43;;;;;;;43.30;26.48;;;-2.30;99.90;;;;;;4992841;28;20023;-50
2021/12/23 04:02:09;;;;;;;40.95;23.75;;;-2.30;99.90;;;;;;4975488;28;20022;-47
2021/12/23 04:04:35;;;;;;;40.50;24.25;;;-2.30;99.90;;;;;;4993094;28;20038;-52
2021/12/23 04:07:01;;;;;;;42.85;25.60;;;-2.30;99.90;;;;;;4993122;28;20019;-49
2021/12/23 04:09:26;;;;;;;42.10;24.17;;;-2.20;99.90;;;;;;4975621;28;20031;-50
2021/12/23 04:11:52;;;;;;;44.05;24.77;;;-2.20;99.90;;;;;;4975528;28;20030;-53
2021/12/23 04:14:17;;;;;;;42.38;24.73;;;-2.10;99.90;;;;;;4993105;28;20038;-49
2021/12/23 04:16:43;;;;;;;46.25;26.48;;;-2.10;99.90;;;;;;4975282;28;20482;-53
2021/12/23 04:19:10;;;;;;;41.35;23.90;;;-2.10;99.90;;;;;;4992604;28;20474;-51
2021/12/23 04:21:38;;;;;;;43.65;24.75;;;-2.00;99.90;;;;;;4975154;28;20507;-49
2021/12/23 04:24:05;;;;;;;41.30;24.92;;;-2.00;99.90;;;;;;4992082;28;20027;-50
2021/12/23 04:26:30;;;;;;;42.58;23.52;;;-2.00;99.90;;;;;;4992697;28;20030;-48
2021/12/23 04:28:56;;;;;;;44.08;24.05;;;-2.00;99.90;;;;;;4992673;28;20030;-47
2021/12/23 04:31:23;;;;;;;42.58;23.67;;;-2.00;99.90;;;;;;4974773;28;20065;-51
2021/12/23 04:33:52;;;;;;;41.42;23.45;;;-2.00;99.90;;;;;;4975232;28;20030;-53
2021/12/23 04:36:18;;;;;;;41.42;23.77;;;-2.00;99.90;;;;;;4992589;28;20109;-54
2021/12/23 04:38:45;;;;;;;40.13;22.77;;;-2.00;99.90;;;;;;4992507;28;20030;-54
2021/12/23 04:41:12;;;;;;;38.22;23.30;;;-2.00;99.90;;;;;;4992153;28;20101;-53
2021/12/23 04:43:38;;;;;;;38.38;23.23;;;-1.90;99.90;;;;;;4974956;28;20026;-49
2021/12/23 04:46:04;;;;;;;39.45;23.25;;;-2.00;99.90;;;;;;4992462;28;20506;-48
2021/12/23 04:48:30;;;;;;;36.20;22.08;;;-2.00;99.90;;;;;;4975145;28;20030;-48
2021/12/23 04:50:57;;;;;;;39.35;23.83;;;-2.10;99.90;;;;;;4991971;28;20553;-52
2021/12/23 04:53:22;;;;;;;43.30;24.95;;;-2.10;99.90;;;;;;4974836;28;20026;-53
2021/12/23 04:55:48;;;;;;;41.75;24.77;;;-2.20;99.90;;;;;;4992424;28;20026;-49
2021/12/23 04:58:14;;;;;;;45.33;24.33;;;-2.20;99.90;;;;;;4974877;28;20092;-49
2021/12/23 05:00:42;;;;;;;45.95;25.10;;;-2.20;99.90;;;;;;4974486;28;20022;-49
2021/12/23 05:03:08;;;;;;;38.00;23.83;;;-2.30;99.90;;;;;;4992457;28;20152;-48
2021/12/23 05:05:33;;;;;;;38.00;21.52;;;-2.30;99.90;;;;;;4992319;28;20499;-50
2021/12/23 05:07:59;;;;;;;42.17;24.50;;;-2.20;99.90;;;;;;4992243;28;20033;-51
2021/12/23 05:10:26;;;;;;;43.25;24.38;;;-2.10;99.90;;;;;;4974334;28;20515;-48
2021/12/23 05:12:51;;;;;;;40.22;22.70;;;-2.10;99.90;;;;;;4992051;28;20028;-54
2021/12/23 05:15:20;;;;;;;45.00;22.52;;;-2.10;99.90;;;;;;4992771;28;20023;-50
2021/12/23 05:17:47;;;;;;;37.40;22.98;;;-2.00;99.90;;;;;;4992086;28;20457;-53
2021/12/23 05:20:15;;;;;;;42.10;24.13;;;-2.00;99.90;;;;;;4974260;28;20382;-48
2021/12/23 05:22:41;;;;;;;39.55;23.05;;;-2.00;99.90;;;;;;4992063;28;20052;-48
2021/12/23 05:25:08;;;;;;;40.47;21.88;;;-2.00;99.90;;;;;;4975085;28;20117;-48
2021/12/23 05:27:34;;;;;;;44.30;23.83;;;-2.00;99.90;;;;;;4974278;28;20027;-47
2021/12/23 05:30:01;;;;;;;42.78;24.35;;;-2.10;99.90;;;;;;4991713;28;20125;-48
2021/12/23 05:32:27;;;;;;;37.03;22.73;;;-2.10;99.90;;;;;;4992150;28;20034;-50
2021/12/23 05:34:52;;;;;;;41.03;24.05;;;-2.10;99.90;;;;;;4992391;28;20026;-53
2021/12/23 05:37:18;;;;;;;37.35;22.20;;;-2.10;99.90;;;;;;4995901;28;20022;-49
2021/12/23 05:39:43;;;;;;;37.33;22.92;;;-2.10;99.90;;;;;;4995567;28;20022;-49
2021/12/23 05:42:09;;;;;;;47.35;25.02;;;-2.10;99.90;;;;;;4995602;28;20038;-52
2021/12/23 05:44:34;;;;;;;44.92;24.25;;;-2.10;99.90;;;;;;4995807;28;20097;-50
2021/12/23 05:47:00;;;;;;;37.80;21.63;;;-2.20;99.90;;;;;;4995812;28;20034;-49
2021/12/23 05:49:25;;;;;;;42.17;23.58;;;-2.20;99.90;;;;;;4995419;28;20038;-49
2021/12/23 05:51:51;;;;;;;35.80;22.67;;;-2.20;99.90;;;;;;4996564;28;20066;-49
2021/12/23 05:54:16;;;;;;;39.53;24.13;;;-2.20;99.90;;;;;;4979498;28;20111;-48
2021/12/23 05:56:42;;;;;;;36.63;22.27;;;-2.20;99.90;;;;;;4995434;28;20046;-51
2021/12/23 05:59:07;;;;;;;43.05;24.52;;;-2.10;99.90;;;;;;4995421;28;20034;-52
2021/12/23 06:01:33;;;;;;;43.00;23.98;;;-2.20;99.90;;;;;;4995971;28;20053;-50
2021/12/23 06:03:58;;;;;;;38.75;23.48;;;-2.20;99.90;;;;;;4995417;28;20038;-50
2021/12/23 06:06:24;;;;;;;40.03;22.23;;;-2.20;99.90;;;;;;4995440;28;20018;-50
2021/12/23 06:08:50;;;;;;;38.60;23.33;;;-2.30;99.90;;;;;;4977841;28;20026;-50
2021/12/23 06:11:15;;;;;;;48.50;25.35;;;-2.30;99.90;;;;;;4994955;28;20026;-48
2021/12/23 06:13:41;;;;;;;44.95;24.45;;;-2.40;99.90;;;;;;4995066;28;20031;-49
2021/12/23 06:16:06;;;;;;;42.65;24.80;;;-2.50;99.90;;;;;;4995137;28;20121;-54
2021/12/23 06:18:32;;;;;;;39.08;24.02;;;-2.40;99.90;;;;;;4977707;28;20039;-51
2021/12/23 06:20:57;;;;;;;42.40;24.77;;;-2.40;99.90;;;;;;4977275;28;20033;-50
2021/12/23 06:23:23;;;;;;;41.17;24.70;;;-2.40;99.90;;;;;;4977606;28;20433;-50
2021/12/23 06:25:49;;;;;;;45.53;25.05;;;-2.30;99.90;;;;;;4994957;28;20049;-54
2021/12/23 06:28:14;;;;;;;49.22;25.75;;;-2.20;99.90;;;;;;4994925;28;20157;-49
2021/12/23 06:30:40;;;;;;;40.83;24.05;;;-2.60;99.90;;;;;;4994936;28;20026;-50
2021/12/23 06:33:06;;;;;;;41.70;22.52;;;-2.20;99.90;;;;;;4995449;28;20030;-47
2021/12/23 06:35:32;;;;;;;45.30;25.08;;;-2.20;99.90;;;;;;4995292;28;20034;-49
2021/12/23 06:38:02;;;;;;;49.28;25.30;;;-2.20;99.90;;;;;;4995004;28;20043;-52
2021/12/23 06:40:28;;;;;;;45.90;26.73;;;-2.10;99.90;;;;;;4994845;28;20026;-53
2021/12/23 06:42:54;;;;;;;45.78;26.00;;;-1.90;99.90;;;;;;4977451;28;20030;-50
2021/12/23 06:45:20;;;;;;;43.65;23.55;;;-2.00;99.90;;;;;;4995159;28;20065;-48
2021/12/23 06:47:45;;;;;;;44.75;25.45;;;-2.00;99.90;;;;;;4993891;28;20030;-54
2021/12/23 06:50:13;;;;;;;43.90;23.77;;;-2.10;99.90;;;;;;4976879;28;20026;-50
2021/12/23 06:52:39;;;;;;;45.63;25.73;;;-1.50;99.90;;;;;;4994913;28;20038;-49
2021/12/23 06:55:07;;;;;;;51.28;25.80;;;-2.10;99.90;;;;;;4994656;28;20039;-53
2021/12/23 06:57:33;;;;;;;43.70;24.20;;;-2.00;99.90;;;;;;4976792;28;20080;-52
2021/12/23 06:59:59;;;;;;;54.60;28.58;;;-1.90;99.90;;;;;;4994275;28;20018;-52
2021/12/23 07:02:25;;;;;;;48.85;28.25;;;-1.60;99.90;;;;;;4976734;28;20488;-51
2021/12/23 07:04:51;;;;;;;49.55;26.85;;;-1.50;99.90;;;;;;4994301;28;20541;-53
2021/12/23 07:07:29;;;;;;;48.72;26.75;;;-1.60;99.90;;;;;;4994351;28;20109;-52
2021/12/23 07:09:55;;;;;;;51.63;29.95;;;-1.60;99.90;;;;;;4994143;28;20072;-49
2021/12/23 07:12:22;;;;;;;51.78;27.73;;;-1.60;99.90;;;;;;4976602;28;20416;-48
2021/12/23 07:14:49;;;;;;;56.20;27.73;;;-1.60;99.90;;;;;;4994345;28;20054;-54
2021/12/23 07:17:15;;;;;;;51.60;27.33;;;-1.60;99.90;;;;;;4994203;28;20023;-51
2021/12/23 07:19:40;;;;;;;50.58;28.15;;;-1.70;99.90;;;;;;4993909;28;20030;-49
2021/12/23 07:22:06;;;;;;;48.28;27.27;;;-1.90;99.90;;;;;;4993881;28;20038;-51
2021/12/23 07:24:33;;;;;;;57.80;29.05;;;-2.00;99.90;;;;;;4994079;28;20030;-51
2021/12/23 07:27:00;;;;;;;56.53;29.73;;;-2.10;99.90;;;;;;4994391;28;20026;-51
2021/12/23 07:29:25;;;;;;;52.30;29.35;;;-2.10;99.90;;;;;;4994280;28;20402;-50
2021/12/23 07:31:51;;;;;;;54.80;27.90;;;-2.00;99.90;;;;;;4994061;28;20038;-53
2021/12/23 07:34:16;;;;;;;51.97;27.85;;;-1.90;99.90;;;;;;4994190;28;20042;-54
2021/12/23 07:36:43;;;;;;;54.72;26.45;;;-1.80;99.90;;;;;;4976753;28;20030;-53
2021/12/23 07:39:08;;;;;;;51.78;27.05;;;-1.80;99.90;;;;;;4993841;28;20074;-49
2021/12/23 07:41:35;;;;;;;53.20;27.38;;;-1.80;99.90;;;;;;4976266;28;20057;-48
2021/12/23 07:44:06;;;;;;;54.17;29.52;;;-1.90;99.90;;;;;;4976047;28;20049;-52
2021/12/23 07:46:34;;;;;;;55.08;29.27;;;-1.90;99.90;;;;;;4994119;28;20018;-52
2021/12/23 07:49:00;;;;;;;53.72;28.75;;;-1.90;99.90;;;;;;4993619;28;20479;-50
2021/12/23 07:51:26;;;;;;;53.92;29.38;;;-2.00;99.90;;;;;;4993204;28;20065;-50
2021/12/23 07:53:53;;;;;;;52.78;28.50;;;-2.00;99.90;;;;;;4993995;28;20034;-50
2021/12/23 07:56:20;;;;;;;51.00;28.40;;;-2.00;99.90;;;;;;4993871;28;20505;-52
2021/12/23 07:58:46;;;;;;;55.55;30.50;;;-1.90;99.90;;;;;;4993178;28;20041;-54
2021/12/23 08:01:11;;;;;;;57.45;30.17;;;-1.80;99.90;;;;;;4993124;28;20022;-49
2021/12/23 08:03:37;;;;;;;52.85;29.17;;;-1.70;99.90;;;;;;4975702;28;20114;-52
2021/12/23 08:06:02;;;;;;;53.20;27.83;;;-1.60;99.90;;;;;;4993279;28;20117;-54
2021/12/23 08:08:28;;;;;;;52.08;28.83;;;-1.60;99.90;;;;;;4993163;28;20541;-54
2021/12/23 08:10:54;;;;;;;55.63;28.80;;;-1.60;99.90;;;;;;4992870;28;20121;-47
2021/12/23 08:13:20;;;;;;;54.63;29.45;;;-1.60;99.90;;;;;;4983554;28;20035;-46
2021/12/23 08:15:46;;;;;;;60.85;31.05;;;-1.60;99.90;;;;;;4985421;28;20570;-47
2021/12/23 08:18:11;;;;;;;60.60;30.35;;;-1.60;99.90;;;;;;4973371;28;20030;-48
2021/12/23 08:20:37;;;;;;;56.30;30.48;;;-1.60;99.90;;;;;;4973707;28;20034;-52
2021/12/23 08:23:03;;;;;;;54.90;28.70;;;-1.50;99.90;;;;;;4976860;28;20518;-49
2021/12/23 08:25:28;;;;;;;55.83;28.92;;;-1.50;99.90;;;;;;4975926;28;20494;-45
2021/12/23 08:27:54;;;;;;;55.40;29.48;;;-1.40;99.90;;;;;;4964771;28;20041;-47
2021/12/23 08:30:21;;;;;;;58.08;30.50;;;-1.50;99.90;;;;;;4978267;28;20487;-46
2021/12/23 08:32:47;;;;;;;50.63;28.15;;;-1.50;99.90;;;;;;4979170;28;20031;-46
2021/12/23 08:35:13;;;;;;;64.65;31.05;;;-1.60;99.90;;;;;;4980659;28;20483;-49
2021/12/23 08:37:40;;;;;;;48.25;28.50;;;-1.50;99.90;;;;;;4993755;28;20034;-46
2021/12/23 08:40:08;;;;;;;59.05;30.45;;;-1.40;99.90;;;;;;4980296;28;20406;-47
2021/12/23 08:42:34;;;;;;;53.10;29.25;;;-1.40;99.90;;;;;;4992653;28;20072;-44
2021/12/23 08:45:03;;;;;;;51.25;27.45;;;-1.30;99.90;;;;;;4984802;28;20027;-52
2021/12/23 08:47:28;;;;;;;57.65;28.15;;;-1.40;99.90;;;;;;5012508;28;20366;-48
2021/12/23 08:49:54;;;;;;;54.97;30.73;;;-1.30;99.90;;;;;;5012132;28;20033;-46
2021/12/23 08:52:19;;;;;;;53.90;30.05;;;-1.20;99.90;;;;;;5012330;28;20030;-46
2021/12/23 08:54:45;;;;;;;57.92;30.55;;;-1.10;99.90;;;;;;5012200;28;20084;-49
2021/12/23 08:57:11;;;;;;;50.10;27.42;;;-1.10;99.90;;;;;;5012171;28;20053;-45
2021/12/23 08:59:37;;;;;;;53.10;29.38;;;-1.10;99.90;;;;;;5011928;28;20503;-47
2021/12/23 09:02:03;;;;;;;59.00;30.42;;;-1.20;99.90;;;;;;5011688;28;20080;-49
2021/12/23 09:04:28;;;;;;;57.53;30.08;;;-1.10;99.90;;;;;;5012168;28;20022;-47
2021/12/23 09:06:54;;;;;;;54.70;28.17;;;-1.10;99.90;;;;;;5012334;28;20022;-45
2021/12/23 09:09:19;;;;;;;53.20;29.02;;;-1.10;99.90;;;;;;5012033;28;20032;-50
2021/12/23 09:11:46;;;;;;;55.13;29.60;;;-1.10;99.90;;;;;;5011631;28;20030;-49
2021/12/23 09:14:12;;;;;;;58.65;30.77;;;-1.10;99.90;;;;;;5012335;28;20503;-54
2021/12/23 09:16:38;;;;;;;54.38;29.70;;;-1.00;99.90;;;;;;5012595;28;20034;-50
2021/12/23 09:19:04;;;;;;;53.55;28.70;;;-1.00;99.90;;;;;;5013260;28;20433;-48
2021/12/23 09:21:30;;;;;;;54.65;28.40;;;-1.00;99.90;;;;;;5022424;23;20315;-51
2021/12/23 09:23:56;;;;;;;55.25;30.35;;;-0.90;99.90;;;;;;4974438;28;20129;-53
2021/12/23 09:26:22;;;;;;;57.10;30.33;;;-0.80;99.90;;;;;;4992012;28;20056;-45
2021/12/23 09:29:08;;;;;;;59.95;30.90;;;-0.80;99.90;;;;;;4991838;28;20034;-50
2021/12/23 09:34:18;;;;;;;57.78;29.73;;;-0.70;99.90;;;;;;4992172;28;20544;-50
2021/12/23 09:36:44;;;;;;;49.92;28.75;;;-0.70;99.90;;;;;;4991828;28;20030;-50
2021/12/23 09:39:11;;;;;;;59.53;31.20;;;-0.80;99.90;;;;;;4973870;28;20037;-53
2021/12/23 09:41:39;;;;;;;56.20;28.77;;;-0.80;99.90;;;;;;4974260;28;20018;-50
2021/12/23 09:44:07;;;;;;;61.10;30.35;;;-0.80;99.90;;;;;;4991646;28;20112;-49
2021/12/23 09:46:34;;;;;;;56.35;30.33;;;-0.80;99.90;;;;;;4991744;28;20390;-52
2021/12/23 09:49:01;;;;;;;55.13;31.08;;;-0.70;99.90;;;;;;4991615;28;20022;-49
2021/12/23 09:51:29;;;;;;;58.05;29.38;;;-0.70;99.90;;;;;;4991256;28;20034;-44
2021/12/23 09:53:58;;;;;;;57.90;30.10;;;-0.70;99.90;;;;;;4991910;28;20534;-46
2021/12/23 09:56:26;;;;;;;51.50;27.60;;;-0.60;99.90;;;;;;4991508;28;20067;-52
2021/12/23 09:58:52;;;;;;;60.25;30.30;;;-0.50;99.90;;;;;;4991577;28;20102;-50
2021/12/23 10:01:18;;;;;;;61.00;31.80;;;-0.60;99.90;;;;;;4973886;28;20113;-48
2021/12/23 10:03:44;;;;;;;57.53;31.02;;;-0.40;99.90;;;;;;4978518;28;20406;-42
2021/12/23 10:06:10;;;;;;;56.08;29.05;;;-0.20;99.90;;;;;;4972196;28;20038;-49
2021/12/23 10:08:39;;;;;;;51.58;28.02;;;-0.40;99.90;;;;;;4968851;28;20037;-48
2021/12/23 10:11:23;;;;;;;55.40;28.75;;;-0.50;99.90;;;;;;4979961;28;20035;-48
2021/12/23 10:38:48;;;;;;;58.47;30.08;;;0.00;99.90;;;;;;4983057;28;20054;-49
2021/12/23 10:41:17;;;;;;;54.88;29.13;;;0.00;99.90;;;;;;4992784;28;20500;-50
2021/12/23 10:43:52;;;;;;;56.60;30.08;;;0.00;99.90;;;;;;4988327;28;20029;-50
2021/12/23 10:46:25;;;;;;;55.72;31.02;;;0.10;99.90;;;;;;4975209;28;20081;-48
2021/12/23 10:49:13;;;;;;;55.95;30.15;;;0.10;99.90;;;;;;4977085;28;20438;-51
2021/12/23 10:52:14;;;;;;;57.05;30.60;;;0.10;99.90;;;;;;4994628;28;20581;-44
2021/12/23 11:00:24;;;;;;;52.53;28.17;;;;;;;;;;4988187;28;20051;-49
2021/12/23 11:03:09;;;;;;;90.05;45.97;;;;;;;;;;4975653;28;20085;-52
2021/12/23 11:05:41;;;;;;;207.05;110.00;;;;;;;;;;4975460;28;20026;-48
2021/12/23 11:08:20;;;;;;;64.85;32.05;;;;;;;;;;4975886;28;20035;-47
2021/12/23 11:38:29;;;;;;;55.15;30.15;;;0.60;99.90;;;;;;4979807;28;20035;-48
2021/12/23 11:41:01;;;;;;;51.90;29.58;;;0.60;99.90;;;;;;5007418;28;20026;-51
2021/12/23 11:45:53;;;;;;;55.55;29.83;;;0.70;99.90;;;;;;4987481;28;20019;-50
2021/12/23 11:48:18;;;;;;;51.17;29.65;;;0.60;99.90;;;;;;4978638;28;20036;-50
2021/12/23 11:53:47;;;;;;;54.70;29.80;;;0.60;99.90;;;;;;4974161;28;20178;-53
2021/12/23 11:56:14;;;;;;;60.60;31.80;;;0.70;99.90;;;;;;4997466;28;20033;-45
2021/12/23 11:58:43;;;;;;;56.03;31.45;;;0.70;99.90;;;;;;4995033;28;20567;-47
2021/12/23 12:01:15;;;;;;;53.15;30.63;;;0.70;99.90;;;;;;4984623;28;20113;-44
2021/12/23 12:04:00;;;;;;;59.08;30.88;;;0.70;99.90;;;;;;4986832;28;20038;-50
2021/12/23 12:06:47;;;;;;;55.85;29.77;;;1.00;99.90;;;;;;4993803;28;20018;-49
2021/12/23 12:09:27;;;;;;;55.35;28.63;;;1.00;99.90;;;;;;4993095;28;20041;-48
2021/12/23 12:11:58;;;;;;;49.08;28.77;;;0.90;99.90;;;;;;4993783;28;20018;-46
2021/12/23 12:14:38;;;;;;;83.90;43.65;;;1.00;99.90;;;;;;4993906;28;20453;-50
2021/12/23 12:17:26;;;;;;;187.23;94.78;;;1.00;99.90;;;;;;4993270;28;20026;-48
2021/12/23 12:20:07;;;;;;;63.10;33.35;;;1.20;99.90;;;;;;4993216;28;20030;-51
2021/12/23 12:22:46;;;;;;;52.05;29.55;;;;;;;;;;4993590;28;20162;-44
2021/12/23 12:25:30;;;;;;;52.85;28.50;;;1.30;99.90;;;;;;4993943;28;20495;-48
2021/12/23 12:27:56;;;;;;;58.25;28.63;;;1.40;99.90;;;;;;4993880;28;20026;-49
2021/12/23 12:30:45;;;;;;;49.75;29.17;;;1.40;99.90;;;;;;4992659;28;20031;-49
2021/12/23 12:33:23;;;;;;;52.72;29.40;;;1.40;99.90;;;;;;4993002;28;20032;-50
2021/12/23 12:36:06;;;;;;;52.28;28.58;;;1.40;99.90;;;;;;4993017;28;20033;-51
2021/12/23 12:38:34;;;;;;;53.25;28.83;;;1.40;99.90;;;;;;4993154;28;20037;-47
2021/12/23 12:41:02;;;;;;;54.30;28.40;;;1.30;99.90;;;;;;4975035;28;20030;-47
2021/12/23 12:43:52;;;;;;;51.15;29.60;;;1.40;99.90;;;;;;4975051;28;20031;-46
2021/12/23 12:49:50;;;;;;;51.10;27.50;;;1.50;99.90;;;;;;4951335;28;20110;-50
2021/12/23 12:52:34;;;;;;;50.20;29.13;;;1.50;99.90;;;;;;4986084;28;20566;-51
2021/12/23 12:55:03;;;;;;;50.75;28.08;;;1.50;99.90;;;;;;4993257;28;20015;-44
2021/12/23 12:57:34;;;;;;;50.60;27.25;;;1.70;99.90;;;;;;4993188;28;20054;-47
2021/12/23 13:00:20;;;;;;;48.13;27.48;;;1.70;99.90;;;;;;4992728;28;20072;-48
2021/12/23 13:02:52;;;;;;;;;;;1.70;99.90;;;;;;4992704;28;20039;-48
2021/12/23 13:05:30;;;;;;;58.97;31.23;;;1.70;99.90;;;;;;4992746;28;19906;-43
2021/12/23 13:07:57;;;;;;;56.58;29.10;;;1.70;99.90;;;;;;4992785;28;20034;-44
2021/12/23 13:10:32;;;;;;;51.28;29.02;;;1.80;99.90;;;;;;4992265;28;20022;-47
2021/12/23 13:13:01;;;;;;;56.45;29.10;;;1.70;99.90;;;;;;4992586;28;20014;-47
2021/12/23 13:15:29;;;;;;;47.83;27.20;;;1.70;99.90;;;;;;4992522;28;20101;-48
2021/12/23 13:18:14;;;;;;;48.83;28.42;;;1.80;99.90;;;;;;4992423;28;20025;-44
2021/12/23 13:20:58;;;;;;;49.57;27.77;;;2.00;99.90;;;;;;4992293;28;20109;-46
2021/12/23 13:23:37;;;;;;;51.95;28.98;;;2.00;99.90;;;;;;4992238;28;20038;-48
2021/12/23 13:26:06;;;;;;;49.60;28.65;;;1.90;99.90;;;;;;4992185;28;20417;-53
2021/12/23 13:28:55;;;;;;;49.53;26.10;;;2.00;99.90;;;;;;4992420;28;20073;-49
2021/12/23 13:31:28;;;;;;;48.85;27.60;;;1.90;99.90;;;;;;4991939;28;20037;-48
2021/12/23 13:34:17;;;;;;;50.92;27.45;;;1.80;99.90;;;;;;4992443;28;20486;-49
2021/12/23 13:36:48;;;;;;;50.33;27.70;;;1.80;99.90;;;;;;4992841;28;20026;-47
2021/12/23 13:39:20;;;;;;;54.85;29.42;;;2.00;99.90;;;;;;4991797;28;20034;-48
2021/12/23 13:41:48;;;;;;;53.15;28.17;;;2.10;99.90;;;;;;4992110;28;20043;-52
2021/12/23 13:44:14;;;;;;;48.67;28.10;;;2.10;99.90;;;;;;4974479;28;20029;-49
2021/12/23 13:46:40;;;;;;;47.80;27.25;;;2.20;99.90;;;;;;4992038;28;20386;-48
2021/12/23 13:49:07;;;;;;;47.05;27.52;;;2.20;99.90;;;;;;4991923;28;20031;-48
2021/12/23 13:51:35;;;;;;;51.20;29.50;;;2.30;99.90;;;;;;4991846;28;20026;-50
2021/12/23 13:54:15;;;;;;;53.42;30.10;;;2.30;99.90;;;;;;4991823;28;20030;-49
2021/12/23 13:56:46;;;;;;;44.05;25.27;;;2.40;99.90;;;;;;4976128;28;20041;-50